Time;durP1;ratioP1;P1;durP2;ratioP2;P2;SDS_P1;SDS_P2;PMS_P1;PMS_P2;Temp;Humidity;BMP_temperature;BMP_pressure;BME280_temperature;BME280_humidity;BME280_pressure;Samples;Min_cycle;Max_cycle;Signal;HPM_P1;HPM_P2
2023/06/13 00:00:44;;;;;;;6.18;2.92;;;23.10;39.20;;;;;;5072940;28;20029;-68
2023/06/13 00:03:13;;;;;;;4.72;2.83;;;23.10;39.20;;;;;;5097757;28;20024;-67
2023/06/13 00:05:46;;;;;;;3.53;3.08;;;23.10;39.20;;;;;;5088005;28;20017;-68
2023/06/13 00:08:19;;;;;;;4.38;3.08;;;23.10;39.40;;;;;;5088517;28;20070;-67
2023/06/13 00:10:46;;;;;;;3.30;2.90;;;23.10;39.30;;;;;;5091589;28;20016;-68
2023/06/13 00:13:12;;;;;;;5.13;3.20;;;23.10;39.90;;;;;;5081054;28;20025;-67
2023/06/13 00:15:38;;;;;;;4.82;3.00;;;23.10;39.30;;;;;;5076003;28;20062;-67
2023/06/13 00:18:04;;;;;;;4.45;3.35;;;23.00;39.40;;;;;;5095873;28;20470;-67
2023/06/13 00:20:30;;;;;;;4.32;3.22;;;23.00;39.50;;;;;;5088594;28;20424;-68
2023/06/13 00:22:57;;;;;;;4.63;3.45;;;22.90;39.60;;;;;;5091769;28;20111;-68
2023/06/13 00:25:23;;;;;;;4.80;3.35;;;22.90;39.70;;;;;;5090170;28;20030;-68
2023/06/13 00:27:48;;;;;;;4.30;3.35;;;22.80;40.00;;;;;;5073260;28;20107;-68
2023/06/13 00:30:14;;;;;;;5.50;3.67;;;22.70;40.10;;;;;;5082642;28;20107;-67
2023/06/13 00:32:40;;;;;;;4.93;3.45;;;22.60;40.20;;;;;;5094438;28;20024;-68
2023/06/13 00:35:08;;;;;;;4.38;2.97;;;22.60;40.40;;;;;;5091474;28;20077;-68
2023/06/13 00:37:34;;;;;;;4.80;2.85;;;22.50;40.30;;;;;;5085365;28;20024;-68
2023/06/13 00:40:00;;;;;;;4.78;3.10;;;22.50;40.30;;;;;;5081675;28;20021;-68
2023/06/13 00:42:25;;;;;;;4.07;3.10;;;22.50;40.60;;;;;;5076456;28;20020;-68
2023/06/13 00:44:51;;;;;;;5.28;3.45;;;22.50;40.70;;;;;;5085102;28;20031;-68
2023/06/13 00:47:17;;;;;;;4.60;3.30;;;22.50;40.70;;;;;;5088465;28;20028;-69
2023/06/13 00:49:43;;;;;;;5.20;2.95;;;22.50;40.80;;;;;;5100500;28;20024;-69
2023/06/13 00:52:09;;;;;;;4.40;2.90;;;22.50;40.80;;;;;;5074635;28;20032;-69
2023/06/13 00:54:38;;;;;;;4.43;3.50;;;22.50;40.80;;;;;;5083554;28;20111;-69
2023/06/13 00:57:07;;;;;;;4.78;3.05;;;22.40;41.10;;;;;;5083775;28;20059;-69
2023/06/13 00:59:33;;;;;;;3.88;3.03;;;22.40;41.00;;;;;;5094195;28;20024;-68
2023/06/13 01:01:59;;;;;;;5.35;3.50;;;22.40;41.10;;;;;;5079158;28;20023;-68
2023/06/13 01:04:27;;;;;;;5.20;3.45;;;22.30;41.30;;;;;;5082102;28;20024;-68
2023/06/13 01:06:52;;;;;;;7.40;4.88;;;22.30;41.30;;;;;;5084066;28;20028;-68
2023/06/13 01:09:18;;;;;;;5.55;4.55;;;22.20;41.60;;;;;;5100640;28;20034;-68
2023/06/13 01:12:06;;;;;;;4.78;3.83;;;22.20;41.60;;;;;;5088729;28;20104;-68
2023/06/13 01:14:55;;;;;;;4.60;3.17;;;22.20;41.60;;;;;;5085590;28;20027;-68
2023/06/13 01:17:24;;;;;;;5.40;3.45;;;22.20;41.60;;;;;;5088320;28;20027;-68
2023/06/13 01:19:58;;;;;;;4.32;3.33;;;22.10;42.30;;;;;;5093598;28;20008;-68
2023/06/13 01:22:37;;;;;;;4.30;3.10;;;22.20;41.80;;;;;;5097540;28;20019;-68
2023/06/13 01:25:20;;;;;;;5.18;3.17;;;22.10;41.60;;;;;;5099245;28;20061;-68
2023/06/13 01:27:49;;;;;;;3.72;3.10;;;22.10;41.80;;;;;;5082934;28;20028;-68
2023/06/13 01:30:18;;;;;;;4.32;3.10;;;22.10;41.90;;;;;;5097843;28;20080;-68
2023/06/13 01:32:46;;;;;;;4.13;3.30;;;22.10;41.80;;;;;;5099689;28;20065;-68
2023/06/13 01:35:13;;;;;;;7.80;3.60;;;22.10;41.90;;;;;;5094533;28;20025;-68
2023/06/13 01:37:39;;;;;;;4.35;3.10;;;22.00;41.90;;;;;;5089398;28;20028;-68
2023/06/13 01:40:07;;;;;;;4.00;3.30;;;22.00;41.80;;;;;;5088519;28;20024;-68
2023/06/13 01:42:33;;;;;;;4.45;3.20;;;22.00;41.80;;;;;;5094407;28;20115;-68
2023/06/13 01:44:59;;;;;;;5.15;2.92;;;22.00;41.70;;;;;;5094083;28;20117;-68
2023/06/13 01:47:37;;;;;;;5.90;4.20;;;22.00;41.70;;;;;;5097446;28;20020;-68
2023/06/13 01:50:09;;;;;;;5.05;3.40;;;21.90;42.00;;;;;;5085086;28;20047;-68
2023/06/13 01:53:07;;;;;;;4.65;2.97;;;21.90;42.00;;;;;;5093090;28;20103;-68
2023/06/13 01:55:45;;;;;;;3.75;2.90;;;21.90;41.90;;;;;;5084972;28;20036;-68
2023/06/13 01:58:16;;;;;;;2.90;2.55;;;21.90;42.00;;;;;;5096674;28;20036;-68
2023/06/13 02:00:43;;;;;;;4.93;3.00;;;21.90;42.00;;;;;;5096193;28;20025;-68
2023/06/13 02:03:10;;;;;;;3.88;2.97;;;21.80;42.00;;;;;;5080466;28;20376;-68
2023/06/13 02:05:35;;;;;;;3.35;2.85;;;21.80;42.10;;;;;;5103568;28;20513;-67
2023/06/13 02:08:02;;;;;;;5.35;3.20;;;21.70;42.20;;;;;;5098638;28;20036;-67
2023/06/13 02:10:28;;;;;;;5.00;3.38;;;21.70;42.40;;;;;;5091768;28;20493;-67
2023/06/13 02:12:53;;;;;;;4.40;3.08;;;21.60;42.60;;;;;;5087787;28;20115;-68
2023/06/13 02:15:19;;;;;;;4.30;3.20;;;21.50;42.70;;;;;;5097505;28;20030;-68
2023/06/13 02:17:45;;;;;;;6.45;3.28;;;21.40;42.90;;;;;;5086082;28;20023;-68
2023/06/13 02:20:12;;;;;;;6.32;3.22;;;21.30;43.00;;;;;;5107543;28;20051;-68
2023/06/13 02:22:37;;;;;;;5.53;3.17;;;21.30;43.30;;;;;;5075928;28;20029;-67
2023/06/13 02:25:04;;;;;;;4.97;3.20;;;21.20;43.30;;;;;;5096691;28;20482;-67
2023/06/13 02:27:30;;;;;;;5.20;3.70;;;21.10;43.30;;;;;;5091399;28;20493;-67
2023/06/13 02:29:55;;;;;;;5.50;3.63;;;21.10;43.40;;;;;;5090220;28;20039;-67
2023/06/13 02:32:22;;;;;;;5.72;3.65;;;21.10;43.40;;;;;;5081133;28;20126;-67
2023/06/13 02:34:49;;;;;;;5.28;3.85;;;21.10;43.50;;;;;;5086394;28;20426;-67
2023/06/13 02:37:14;;;;;;;6.75;3.97;;;21.00;43.50;;;;;;5095874;28;20031;-67
2023/06/13 02:39:40;;;;;;;3.83;3.20;;;21.00;43.60;;;;;;5086101;28;20032;-67
2023/06/13 02:42:06;;;;;;;5.15;4.00;;;20.90;43.60;;;;;;5094870;28;20024;-67
2023/06/13 02:44:32;;;;;;;4.47;3.80;;;20.90;43.70;;;;;;5092372;28;20112;-67
2023/06/13 02:46:57;;;;;;;5.57;3.50;;;20.90;43.80;;;;;;5093491;28;20774;-67
2023/06/13 02:49:23;;;;;;;4.20;3.60;;;20.80;43.80;;;;;;5085275;28;20069;-67
2023/06/13 02:51:49;;;;;;;5.07;3.53;;;20.80;43.90;;;;;;5084120;28;20107;-67
2023/06/13 02:54:15;;;;;;;4.13;3.42;;;20.70;44.00;;;;;;5079064;28;20032;-67
2023/06/13 02:56:40;;;;;;;4.15;3.35;;;20.70;44.10;;;;;;5087447;28;20542;-67
2023/06/13 02:59:06;;;;;;;4.75;3.50;;;20.60;44.10;;;;;;5081795;28;20016;-67
2023/06/13 03:01:31;;;;;;;5.18;3.45;;;20.60;44.20;;;;;;5090435;28;20020;-67
2023/06/13 03:03:57;;;;;;;6.15;3.28;;;20.60;44.30;;;;;;5091175;28;20081;-67
2023/06/13 03:06:24;;;;;;;6.25;3.40;;;20.50;44.40;;;;;;5109967;28;20031;-68
2023/06/13 03:08:52;;;;;;;4.88;3.42;;;20.50;44.60;;;;;;5082102;28;20549;-67
2023/06/13 03:11:18;;;;;;;5.50;3.42;;;20.40;44.60;;;;;;5080549;28;20032;-68
2023/06/13 03:13:43;;;;;;;4.95;3.42;;;20.40;44.80;;;;;;5089130;28;20088;-68
2023/06/13 03:16:10;;;;;;;4.78;3.35;;;20.30;44.90;;;;;;5091305;28;20363;-68
2023/06/13 03:18:36;;;;;;;4.70;3.50;;;20.30;45.00;;;;;;5087344;28;20398;-67
2023/06/13 03:21:03;;;;;;;4.57;3.38;;;20.20;45.10;;;;;;5084148;28;20021;-67
2023/06/13 03:23:29;;;;;;;4.90;3.40;;;20.20;45.20;;;;;;5098394;28;20441;-67
2023/06/13 03:25:55;;;;;;;5.03;3.63;;;20.20;45.20;;;;;;5094556;28;20036;-67
2023/06/13 03:28:20;;;;;;;4.90;3.50;;;20.10;45.40;;;;;;5087536;28;20054;-67
2023/06/13 03:30:46;;;;;;;4.50;3.40;;;20.10;45.40;;;;;;5092920;28;20028;-67
2023/06/13 03:33:11;;;;;;;4.82;3.50;;;20.10;45.50;;;;;;5093908;28;20044;-67
2023/06/13 03:35:38;;;;;;;5.82;3.60;;;20.10;45.60;;;;;;5092087;28;20602;-66
2023/06/13 03:38:03;;;;;;;4.07;3.55;;;20.00;45.70;;;;;;5093491;28;20078;-66
2023/06/13 03:40:29;;;;;;;4.32;3.55;;;20.00;45.90;;;;;;5090236;28;20047;-66
2023/06/13 03:42:55;;;;;;;4.72;3.70;;;19.90;45.90;;;;;;5083079;28;20032;-66
2023/06/13 03:45:24;;;;;;;5.57;3.80;;;19.90;45.90;;;;;;5095331;28;20027;-66
2023/06/13 03:47:50;;;;;;;4.82;3.58;;;19.90;46.10;;;;;;5109986;28;20359;-65
2023/06/13 03:50:15;;;;;;;5.07;4.00;;;19.90;46.20;;;;;;5072591;28;20032;-66
2023/06/13 03:52:41;;;;;;;4.13;3.70;;;19.90;46.20;;;;;;5084780;28;20036;-68
2023/06/13 03:55:06;;;;;;;5.25;3.33;;;19.90;46.20;;;;;;5084333;28;20110;-66
2023/06/13 03:57:32;;;;;;;6.15;3.85;;;19.90;46.20;;;;;;5081993;28;20115;-66
2023/06/13 03:59:57;;;;;;;5.43;3.40;;;19.90;46.40;;;;;;5089517;28;20017;-67
2023/06/13 04:02:23;;;;;;;3.75;3.10;;;19.90;46.40;;;;;;5076782;28;20027;-67
2023/06/13 04:04:52;;;;;;;8.05;4.10;;;19.90;46.40;;;;;;5091955;28;20025;-67
2023/06/13 04:07:21;;;;;;;6.13;4.10;;;19.90;46.50;;;;;;5080195;28;20028;-67
2023/06/13 04:09:47;;;;;;;4.53;3.35;;;19.80;46.60;;;;;;5094005;28;20100;-67
2023/06/13 04:12:13;;;;;;;4.22;3.50;;;19.80;46.60;;;;;;5071344;28;20031;-67
2023/06/13 04:14:38;;;;;;;4.30;3.25;;;19.90;46.60;;;;;;5077841;28;20020;-67
2023/06/13 04:17:05;;;;;;;5.28;3.53;;;19.90;46.60;;;;;;5078369;28;20102;-66
2023/06/13 04:19:31;;;;;;;4.45;3.30;;;19.90;46.60;;;;;;5076129;28;20067;-67
2023/06/13 04:21:59;;;;;;;5.00;3.45;;;20.00;46.50;;;;;;5091093;28;20043;-67
2023/06/13 04:24:25;;;;;;;4.75;3.20;;;20.00;46.40;;;;;;5102121;28;20020;-67
2023/06/13 04:26:50;;;;;;;4.43;3.60;;;20.00;46.40;;;;;;5090148;28;20089;-67
2023/06/13 04:29:17;;;;;;;5.80;3.00;;;20.00;46.50;;;;;;5091381;28;20524;-68
2023/06/13 04:31:43;;;;;;;4.10;3.40;;;20.10;46.50;;;;;;5084937;28;20020;-68
2023/06/13 04:34:11;;;;;;;4.07;3.47;;;20.10;46.40;;;;;;5097487;28;20035;-68
2023/06/13 04:36:38;;;;;;;3.85;3.13;;;20.10;46.30;;;;;;5084941;28;20013;-68
2023/06/13 04:39:06;;;;;;;3.63;3.20;;;20.20;46.20;;;;;;5086725;28;20016;-68
2023/06/13 04:41:37;;;;;;;4.47;3.38;;;20.20;46.20;;;;;;5082977;28;20024;-68
2023/06/13 04:44:09;;;;;;;5.13;4.05;;;20.20;46.20;;;;;;5098567;28;20110;-68
2023/06/13 04:46:36;;;;;;;4.35;3.53;;;20.20;46.30;;;;;;5093087;28;20047;-68
2023/06/13 04:49:04;;;;;;;6.32;3.70;;;20.30;46.30;;;;;;5100320;28;20028;-68
2023/06/13 04:51:30;;;;;;;5.50;3.63;;;20.30;46.20;;;;;;5093900;28;20020;-68
2023/06/13 04:54:00;;;;;;;6.43;4.00;;;20.80;45.70;;;;;;5101846;28;20047;-68
2023/06/13 04:56:27;;;;;;;4.93;3.60;;;21.40;45.10;;;;;;5073239;28;20020;-68
2023/06/13 04:58:53;;;;;;;3.97;3.50;;;21.90;45.00;;;;;;5091191;28;20020;-68
2023/06/13 05:01:26;;;;;;;5.00;3.70;;;22.30;43.70;;;;;;5079742;28;20035;-67
2023/06/13 05:03:53;;;;;;;4.10;3.60;;;22.70;43.00;;;;;;5086555;28;20028;-67
2023/06/13 05:06:21;;;;;;;5.03;3.63;;;23.10;42.60;;;;;;5098720;28;20027;-67
2023/06/13 05:08:47;;;;;;;4.07;3.40;;;23.30;42.10;;;;;;5087006;28;20143;-68
2023/06/13 05:11:13;;;;;;;5.22;3.78;;;23.70;41.70;;;;;;5090236;28;20028;-68
2023/06/13 05:13:38;;;;;;;4.60;3.63;;;23.80;41.50;;;;;;5082916;28;20024;-68
2023/06/13 05:16:04;;;;;;;5.90;3.65;;;24.10;41.10;;;;;;5084838;28;20024;-68
2023/06/13 05:18:31;;;;;;;4.18;3.45;;;24.30;40.80;;;;;;5103245;28;20020;-69
2023/06/13 05:20:58;;;;;;;4.20;3.08;;;24.60;40.50;;;;;;5092189;28;20020;-68
2023/06/13 05:23:24;;;;;;;4.53;3.25;;;24.80;40.10;;;;;;5100094;28;20015;-70
2023/06/13 05:25:49;;;;;;;3.90;3.13;;;25.10;39.90;;;;;;5086955;28;20091;-70
2023/06/13 05:28:16;;;;;;;4.20;3.40;;;25.40;39.70;;;;;;5089292;28;20024;-69
2023/06/13 05:30:42;;;;;;;6.18;3.22;;;25.60;39.50;;;;;;5102808;28;20091;-66
2023/06/13 05:33:08;;;;;;;4.05;3.35;;;25.60;39.20;;;;;;5079689;28;20020;-69
2023/06/13 05:35:34;;;;;;;4.15;3.45;;;25.60;39.40;;;;;;5079646;28;20674;-67
2023/06/13 05:37:59;;;;;;;4.90;3.78;;;25.50;39.10;;;;;;5079497;28;20022;-69
2023/06/13 05:40:25;;;;;;;5.70;3.67;;;25.30;39.40;;;;;;5079503;28;20028;-67
2023/06/13 05:42:50;;;;;;;4.40;3.45;;;25.20;39.70;;;;;;5082708;28;20183;-68
2023/06/13 05:45:16;;;;;;;4.50;3.40;;;25.20;39.70;;;;;;5079129;28;20457;-69
2023/06/13 05:47:42;;;;;;;6.72;4.20;;;25.00;39.80;;;;;;5079718;28;20031;-70
2023/06/13 05:50:08;;;;;;;5.32;3.55;;;24.90;40.40;;;;;;5078073;28;20060;-69
2023/06/13 05:52:34;;;;;;;5.85;3.70;;;24.80;40.20;;;;;;5083731;28;20110;-69
2023/06/13 05:55:01;;;;;;;4.50;3.42;;;24.80;40.30;;;;;;5087863;28;20107;-69
2023/06/13 05:57:38;;;;;;;5.28;3.40;;;24.80;40.40;;;;;;5084900;28;20047;-69
2023/06/13 06:00:06;;;;;;;4.22;3.47;;;24.80;40.30;;;;;;5090765;28;20024;-68
2023/06/13 06:02:32;;;;;;;5.10;3.60;;;24.90;40.30;;;;;;5088075;28;20016;-68
2023/06/13 06:05:00;;;;;;;4.72;3.88;;;24.80;40.10;;;;;;5095894;28;20035;-68
2023/06/13 06:07:26;;;;;;;4.65;3.30;;;24.80;40.30;;;;;;5074029;28;20027;-67
2023/06/13 06:09:52;;;;;;;4.05;3.60;;;24.80;40.40;;;;;;5082366;28;20024;-67
2023/06/13 06:12:17;;;;;;;4.25;3.42;;;24.80;40.30;;;;;;5085722;28;20040;-67
2023/06/13 06:14:43;;;;;;;4.78;3.50;;;24.70;40.40;;;;;;5082044;28;20036;-67
2023/06/13 06:17:08;;;;;;;7.43;3.70;;;24.70;40.60;;;;;;5087766;28;20028;-67
2023/06/13 06:19:34;;;;;;;5.88;3.60;;;24.60;40.50;;;;;;5074820;28;20082;-67
2023/06/13 06:22:00;;;;;;;4.95;3.65;;;24.50;40.70;;;;;;5086930;28;20052;-67
2023/06/13 06:24:25;;;;;;;6.28;3.65;;;24.50;40.80;;;;;;5077278;28;20024;-67
2023/06/13 06:26:51;;;;;;;6.13;4.07;;;24.50;40.90;;;;;;5079231;28;20024;-67
2023/06/13 06:29:16;;;;;;;7.72;4.05;;;24.50;40.90;;;;;;5084987;28;20050;-67
2023/06/13 06:31:42;;;;;;;5.72;3.67;;;24.40;41.10;;;;;;5091802;28;20371;-68
2023/06/13 06:34:09;;;;;;;4.82;3.45;;;24.40;41.10;;;;;;5100922;28;20130;-68
2023/06/13 06:36:34;;;;;;;5.20;4.10;;;24.40;41.40;;;;;;5075265;28;20095;-67
2023/06/13 06:39:00;;;;;;;3.92;3.45;;;24.60;41.40;;;;;;5073955;28;20023;-68
2023/06/13 06:41:25;;;;;;;4.65;3.70;;;24.60;41.00;;;;;;5078984;28;20028;-67
2023/06/13 06:43:51;;;;;;;7.90;4.38;;;24.60;41.10;;;;;;5089565;28;20024;-67
2023/06/13 06:46:16;;;;;;;6.95;3.88;;;24.50;41.30;;;;;;5077596;28;20111;-67
2023/06/13 06:48:42;;;;;;;4.25;3.72;;;24.50;41.40;;;;;;5079607;28;20024;-67
2023/06/13 06:51:07;;;;;;;6.82;4.43;;;24.50;41.50;;;;;;5092772;28;20033;-67
2023/06/13 06:53:33;;;;;;;6.95;4.18;;;24.60;41.40;;;;;;5076135;28;20017;-66
2023/06/13 06:55:58;;;;;;;6.40;4.20;;;24.50;41.60;;;;;;5084244;28;20093;-67
2023/06/13 06:58:24;;;;;;;7.82;3.42;;;24.50;41.80;;;;;;5083584;28;20016;-67
2023/06/13 07:00:49;;;;;;;6.97;3.85;;;24.60;41.90;;;;;;5075985;28;20086;-67
2023/06/13 07:03:15;;;;;;;5.57;3.80;;;24.60;41.70;;;;;;5096769;28;20479;-67
2023/06/13 07:05:41;;;;;;;4.07;3.55;;;24.60;42.00;;;;;;5080822;28;20031;-67
2023/06/13 07:08:06;;;;;;;4.53;4.00;;;24.70;42.00;;;;;;5078541;28;20103;-67
2023/06/13 07:10:32;;;;;;;5.40;4.00;;;24.70;42.00;;;;;;5087074;28;20039;-67
2023/06/13 07:12:58;;;;;;;4.63;3.67;;;24.70;42.10;;;;;;5072063;28;20017;-67
2023/06/13 07:15:23;;;;;;;5.35;4.07;;;24.60;42.30;;;;;;5080306;28;20044;-67
2023/06/13 07:17:51;;;;;;;9.18;3.90;;;24.70;42.20;;;;;;5083774;28;20035;-67
2023/06/13 07:20:17;;;;;;;6.05;4.07;;;24.80;42.10;;;;;;5085194;28;20096;-67
2023/06/13 07:22:43;;;;;;;7.50;4.20;;;24.80;41.90;;;;;;5088418;28;20110;-67
2023/06/13 07:25:08;;;;;;;6.03;4.15;;;24.70;42.10;;;;;;5077881;28;20505;-67
2023/06/13 07:27:34;;;;;;;8.50;4.03;;;24.80;42.20;;;;;;5084906;28;20027;-67
2023/06/13 07:30:00;;;;;;;5.97;4.05;;;24.80;42.20;;;;;;5080399;28;20036;-67
2023/06/13 07:32:26;;;;;;;4.55;3.38;;;24.80;42.40;;;;;;5093533;28;20116;-67
2023/06/13 07:34:51;;;;;;;5.70;3.50;;;25.10;42.40;;;;;;5093367;28;20394;-67
2023/06/13 07:37:17;;;;;;;5.80;4.10;;;25.20;42.00;;;;;;5088895;28;20047;-67
2023/06/13 07:39:42;;;;;;;6.78;4.60;;;25.20;41.60;;;;;;5084812;28;20081;-67
2023/06/13 07:42:08;;;;;;;5.40;3.83;;;25.30;41.60;;;;;;5084952;28;20021;-67
2023/06/13 07:44:33;;;;;;;5.20;3.80;;;25.50;41.50;;;;;;5086768;28;20029;-67
2023/06/13 07:46:59;;;;;;;7.00;4.22;;;25.60;41.00;;;;;;5080590;28;20036;-67
2023/06/13 07:49:25;;;;;;;4.10;3.53;;;25.50;40.80;;;;;;5093108;28;20024;-67
2023/06/13 07:51:50;;;;;;;5.20;3.75;;;25.50;41.30;;;;;;5083788;28;20056;-68
2023/06/13 07:54:16;;;;;;;5.20;3.80;;;25.70;41.20;;;;;;5077946;28;20028;-67
2023/06/13 07:56:44;;;;;;;5.45;4.00;;;25.80;40.90;;;;;;5088312;28;20022;-67
2023/06/13 07:59:10;;;;;;;5.80;3.78;;;25.70;40.40;;;;;;5087773;28;20020;-67
2023/06/13 08:01:36;;;;;;;6.70;3.95;;;25.60;40.50;;;;;;5098287;28;20050;-67
2023/06/13 08:04:01;;;;;;;5.95;3.78;;;25.70;40.60;;;;;;5082898;28;20041;-67
2023/06/13 08:06:33;;;;;;;4.45;3.83;;;25.80;40.00;;;;;;5091770;28;20024;-67
2023/06/13 08:08:59;;;;;;;5.82;4.30;;;25.70;39.70;;;;;;5088478;28;20089;-67
2023/06/13 08:11:24;;;;;;;7.43;3.78;;;25.60;39.80;;;;;;5088096;28;20027;-67
2023/06/13 08:13:50;;;;;;;6.53;3.83;;;25.60;40.00;;;;;;5086332;28;20028;-67
2023/06/13 08:16:15;;;;;;;7.80;3.83;;;25.80;40.10;;;;;;5083099;28;20522;-67
2023/06/13 08:18:41;;;;;;;6.63;3.85;;;26.00;40.00;;;;;;5085735;28;20073;-67
2023/06/13 08:21:07;;;;;;;4.70;3.75;;;26.20;39.50;;;;;;5093152;28;20487;-67
2023/06/13 08:23:32;;;;;;;3.72;3.30;;;26.30;39.20;;;;;;5085983;28;20020;-67
2023/06/13 08:25:58;;;;;;;4.55;3.40;;;26.40;39.00;;;;;;5083614;28;20088;-67
2023/06/13 08:28:25;;;;;;;5.28;3.40;;;26.50;38.80;;;;;;5080537;28;20013;-67
2023/06/13 08:30:51;;;;;;;5.75;4.20;;;26.70;38.80;;;;;;5087681;28;20377;-67
2023/06/13 08:33:17;;;;;;;6.38;4.00;;;26.70;38.40;;;;;;5087950;28;20057;-67
2023/06/13 08:35:42;;;;;;;5.60;3.70;;;26.40;37.60;;;;;;5077436;28;20111;-67
2023/06/13 08:38:08;;;;;;;4.68;3.70;;;26.40;38.10;;;;;;5088444;28;20389;-67
2023/06/13 08:40:34;;;;;;;5.43;3.78;;;26.30;38.40;;;;;;5083194;28;20028;-67
2023/06/13 08:43:00;;;;;;;4.68;3.63;;;26.30;38.30;;;;;;5084771;28;20513;-67
2023/06/13 08:45:26;;;;;;;5.57;3.85;;;26.40;38.60;;;;;;5084161;28;20034;-67
2023/06/13 08:47:53;;;;;;;7.95;4.07;;;26.60;38.00;;;;;;5086812;28;20024;-67
2023/06/13 08:50:24;;;;;;;5.22;4.00;;;26.50;38.00;;;;;;5088515;28;20119;-67
2023/06/13 08:52:50;;;;;;;6.57;3.88;;;26.50;38.10;;;;;;5091215;28;20112;-67
2023/06/13 08:55:21;;;;;;;4.75;3.72;;;26.50;37.90;;;;;;5085793;28;20111;-67
2023/06/13 08:57:52;;;;;;;4.65;3.65;;;26.60;37.90;;;;;;5095144;28;20101;-67
2023/06/13 09:00:19;;;;;;;5.03;3.85;;;26.60;37.60;;;;;;5092436;28;20051;-67
2023/06/13 09:02:46;;;;;;;5.75;3.50;;;26.70;37.00;;;;;;5096468;28;20028;-67
2023/06/13 09:05:18;;;;;;;4.72;3.55;;;26.70;36.90;;;;;;5088342;28;20525;-67
2023/06/13 09:07:48;;;;;;;4.97;3.53;;;26.80;36.80;;;;;;5094018;28;20390;-67
2023/06/13 09:10:14;;;;;;;5.55;3.50;;;27.00;37.00;;;;;;5088414;28;20520;-67
2023/06/13 09:12:40;;;;;;;4.95;3.50;;;27.20;37.10;;;;;;5089627;28;20015;-68
2023/06/13 09:15:07;;;;;;;6.65;3.83;;;27.30;36.50;;;;;;5085841;28;20089;-67
2023/06/13 09:17:32;;;;;;;4.90;3.40;;;27.30;36.20;;;;;;5082588;28;20363;-67
2023/06/13 09:19:59;;;;;;;5.00;3.60;;;27.30;36.70;;;;;;5088221;28;20058;-67
2023/06/13 09:22:26;;;;;;;4.10;3.33;;;27.40;36.40;;;;;;5084449;28;20020;-67
2023/06/13 09:24:52;;;;;;;3.97;3.40;;;27.50;35.30;;;;;;5088774;28;20425;-67
2023/06/13 09:27:18;;;;;;;3.55;3.10;;;27.50;35.30;;;;;;5091418;28;20032;-67
2023/06/13 09:29:44;;;;;;;5.20;3.50;;;27.70;35.30;;;;;;5096111;28;20315;-67
2023/06/13 09:32:11;;;;;;;4.75;3.20;;;27.70;34.50;;;;;;5091455;28;20028;-67
2023/06/13 09:34:38;;;;;;;3.88;3.22;;;27.80;34.80;;;;;;5089261;28;20024;-67
2023/06/13 09:37:07;;;;;;;4.63;3.20;;;27.90;34.50;;;;;;5086814;28;20027;-67
2023/06/13 09:39:32;;;;;;;4.95;3.33;;;28.00;34.30;;;;;;5089171;28;20016;-67
2023/06/13 09:42:00;;;;;;;6.22;3.83;;;28.10;34.00;;;;;;5083452;28;20032;-67
2023/06/13 09:44:26;;;;;;;7.32;3.95;;;28.00;32.50;;;;;;5091163;28;20020;-67
2023/06/13 09:46:53;;;;;;;5.85;3.97;;;27.90;32.30;;;;;;5091687;28;20023;-67
2023/06/13 09:49:19;;;;;;;3.95;3.50;;;27.80;32.20;;;;;;5088288;28;20032;-67
2023/06/13 09:51:46;;;;;;;8.27;3.67;;;27.60;32.50;;;;;;5089285;28;20032;-67
2023/06/13 09:54:13;;;;;;;4.20;3.60;;;27.60;32.40;;;;;;5084816;28;20024;-67
2023/06/13 09:56:42;;;;;;;4.95;3.65;;;27.60;32.60;;;;;;5092550;28;20506;-67
2023/06/13 09:59:16;;;;;;;5.72;3.47;;;27.70;32.90;;;;;;5086947;28;20479;-68
2023/06/13 10:01:42;;;;;;;4.57;3.38;;;27.80;32.60;;;;;;5085351;28;20020;-67
2023/06/13 10:04:09;;;;;;;6.10;4.43;;;27.90;32.60;;;;;;5096047;28;20039;-67
2023/06/13 10:06:36;;;;;;;5.18;3.92;;;27.90;31.90;;;;;;5087614;28;20025;-67
2023/06/13 10:09:02;;;;;;;4.82;3.55;;;27.70;32.30;;;;;;5082374;28;20031;-67
2023/06/13 10:11:31;;;;;;;5.30;3.90;;;27.70;32.80;;;;;;5088106;28;20024;-67
2023/06/13 10:14:30;;;;;;;4.65;3.63;;;27.80;32.40;;;;;;5082179;28;20596;-68
2023/06/13 10:17:02;;;;;;;6.85;3.63;;;27.90;32.60;;;;;;5036581;28;20084;-67
2023/06/13 10:19:30;;;;;;;5.35;3.85;;;28.00;32.50;;;;;;5090300;28;20062;-67
2023/06/13 10:21:57;;;;;;;5.45;3.75;;;28.20;32.50;;;;;;5087504;28;20080;-67
2023/06/13 10:24:23;;;;;;;4.90;3.50;;;28.20;32.20;;;;;;5088621;28;20542;-67
2023/06/13 10:26:54;;;;;;;5.60;3.40;;;28.30;32.30;;;;;;5084998;28;20032;-67
2023/06/13 10:29:31;;;;;;;6.65;4.35;;;28.20;32.10;;;;;;5087407;28;20040;-67
2023/06/13 10:32:15;;;;;;;4.90;3.75;;;28.30;32.30;;;;;;5087558;28;20397;-67
2023/06/13 10:34:55;;;;;;;5.82;4.10;;;28.50;32.50;;;;;;5079833;28;20042;-67
2023/06/13 10:38:15;;;;;;;4.30;3.63;;;28.50;32.20;;;;;;5092169;28;20019;-67
2023/06/13 10:41:23;;;;;;;5.10;3.60;;;28.60;32.00;;;;;;5003113;28;20021;-67
2023/06/13 10:43:55;;;;;;;6.60;4.47;;;28.70;32.10;;;;;;5047358;28;20082;-67
2023/06/13 10:46:21;;;;;;;5.30;3.67;;;28.80;31.70;;;;;;5081918;28;20066;-67
2023/06/13 10:48:52;;;;;;;4.15;3.60;;;28.60;31.30;;;;;;5088919;28;20052;-68
2023/06/13 10:51:22;;;;;;;5.22;3.70;;;28.50;31.70;;;;;;5085254;28;20020;-67
2023/06/13 10:54:02;;;;;;;4.38;3.97;;;28.70;31.50;;;;;;5084627;28;20028;-67
2023/06/13 10:56:33;;;;;;;4.20;3.77;;;28.70;31.40;;;;;;5086878;28;20028;-67
2023/06/13 10:59:14;;;;;;;6.13;4.10;;;28.80;31.70;;;;;;5086772;28;20019;-67
2023/06/13 11:01:41;;;;;;;4.40;3.78;;;28.70;31.30;;;;;;5086198;28;20016;-67
2023/06/13 11:04:15;;;;;;;5.82;4.10;;;28.60;31.60;;;;;;5087254;28;20032;-67
2023/06/13 11:06:46;;;;;;;5.47;4.28;;;28.60;31.70;;;;;;5083701;28;20099;-67
2023/06/13 11:09:24;;;;;;;5.33;4.00;;;28.60;31.10;;;;;;5086848;28;20033;-68
2023/06/13 11:11:57;;;;;;;4.25;3.72;;;28.50;31.70;;;;;;5088352;28;20016;-68
2023/06/13 11:14:33;;;;;;;7.22;3.85;;;28.60;31.80;;;;;;5082715;28;20016;-67
2023/06/13 11:17:01;;;;;;;5.05;4.10;;;28.80;31.70;;;;;;5082401;28;20028;-68
2023/06/13 11:19:28;;;;;;;5.85;3.92;;;28.70;31.20;;;;;;5087257;28;20011;-68
2023/06/13 11:22:01;;;;;;;5.55;4.30;;;28.70;31.30;;;;;;5083053;28;20076;-68
2023/06/13 11:24:28;;;;;;;4.85;4.07;;;28.70;31.20;;;;;;5083956;28;20043;-68
2023/06/13 11:26:56;;;;;;;5.30;4.00;;;28.60;30.60;;;;;;5083676;28;20530;-68
2023/06/13 11:29:22;;;;;;;4.68;3.95;;;28.60;30.70;;;;;;5083972;28;20027;-67
2023/06/13 11:31:51;;;;;;;6.22;3.70;;;28.50;30.80;;;;;;5083958;28;20055;-68
2023/06/13 11:34:20;;;;;;;5.15;4.07;;;28.70;30.70;;;;;;5084687;28;20059;-68
2023/06/13 11:36:49;;;;;;;4.40;4.00;;;28.70;30.80;;;;;;5088527;28;20510;-68
2023/06/13 11:39:41;;;;;;;4.45;3.90;;;28.70;30.90;;;;;;5083916;28;20398;-68
2023/06/13 11:42:08;;;;;;;4.75;4.05;;;28.70;30.80;;;;;;5087057;28;20032;-68
2023/06/13 11:44:37;;;;;;;6.85;4.60;;;28.70;30.70;;;;;;5084829;28;20017;-68
2023/06/13 11:47:03;;;;;;;5.32;3.72;;;28.80;30.70;;;;;;5078695;28;20035;-68
2023/06/13 11:49:28;;;;;;;6.22;4.13;;;28.80;30.40;;;;;;5086381;28;20031;-68
2023/06/13 11:51:54;;;;;;;4.15;3.55;;;28.70;30.50;;;;;;5084443;28;20024;-68
2023/06/13 11:54:28;;;;;;;4.57;3.72;;;28.80;30.70;;;;;;5084786;28;20024;-67
2023/06/13 11:56:54;;;;;;;4.50;4.07;;;29.10;30.90;;;;;;5084024;28;20099;-68
2023/06/13 11:59:21;;;;;;;4.82;3.53;;;29.00;30.40;;;;;;5083950;28;20121;-67
2023/06/13 12:01:49;;;;;;;5.20;3.95;;;29.10;30.90;;;;;;5084186;28;20020;-68
2023/06/13 12:04:15;;;;;;;4.60;4.03;;;29.50;30.50;;;;;;5089234;28;20023;-68
2023/06/13 12:06:42;;;;;;;7.22;3.80;;;29.50;30.20;;;;;;5080186;28;20077;-68
2023/06/13 12:09:07;;;;;;;5.22;3.95;;;29.80;30.20;;;;;;5081775;28;20020;-68
2023/06/13 12:11:33;;;;;;;5.35;4.13;;;29.80;30.00;;;;;;5089380;28;20470;-68
2023/06/13 12:14:01;;;;;;;5.15;3.55;;;29.70;29.80;;;;;;5086339;28;20040;-67
2023/06/13 12:16:37;;;;;;;5.60;4.15;;;29.70;29.90;;;;;;5080307;28;20501;-68
2023/06/13 12:19:05;;;;;;;6.88;3.83;;;29.80;29.80;;;;;;5085911;28;20047;-68
2023/06/13 12:21:32;;;;;;;6.15;3.80;;;29.90;29.30;;;;;;5090968;27;20107;-68
2023/06/13 12:24:07;;;;;;;4.53;3.40;;;29.90;29.50;;;;;;5088836;28;20017;-68
2023/06/13 12:26:34;;;;;;;6.00;3.90;;;30.30;29.40;;;;;;5087154;28;20020;-68
2023/06/13 12:29:06;;;;;;;5.53;3.70;;;30.40;29.40;;;;;;5090291;28;20032;-68
2023/06/13 12:31:38;;;;;;;4.65;4.03;;;30.40;29.60;;;;;;5086701;28;20020;-68
2023/06/13 12:34:05;;;;;;;5.28;3.85;;;30.20;29.60;;;;;;5084879;28;20073;-68
2023/06/13 12:36:41;;;;;;;6.82;3.95;;;30.20;29.80;;;;;;5091578;28;20017;-68
2023/06/13 12:39:09;;;;;;;5.13;3.53;;;30.60;29.90;;;;;;5082163;28;20106;-68
2023/06/13 12:41:35;;;;;;;6.55;3.70;;;30.90;29.70;;;;;;5088366;28;20026;-68
2023/06/13 12:44:01;;;;;;;5.55;4.15;;;30.80;29.20;;;;;;5089079;28;20137;-68
2023/06/13 12:46:27;;;;;;;4.45;3.78;;;30.60;29.40;;;;;;5085018;28;20106;-68
2023/06/13 12:48:55;;;;;;;5.40;3.85;;;30.70;29.70;;;;;;5088056;28;20078;-68
2023/06/13 12:51:30;;;;;;;4.45;4.03;;;30.90;29.70;;;;;;5085540;28;20067;-68